createdAt,value
2019-03-06T00:00:05.935Z,67.50
2019-03-06T00:01:05.916Z,67.19
2019-03-06T00:02:05.916Z,67.61
2019-03-06T00:03:05.903Z,67.09
2019-03-06T00:04:05.883Z,67.91
2019-03-06T00:05:05.873Z,68.12
2019-03-06T00:06:05.863Z,68.64
2019-03-06T00:07:05.864Z,68.33
2019-03-06T00:08:05.838Z,68.33
2019-03-06T00:09:05.828Z,69.06
2019-03-06T00:10:05.816Z,68.64
2019-03-06T00:11:05.806Z,69.06
2019-03-06T00:12:05.808Z,68.74
2019-03-06T00:13:05.783Z,67.91
2019-03-06T00:14:05.775Z,68.02
2019-03-06T00:15:05.767Z,68.12
2019-03-06T00:16:05.746Z,68.02
2019-03-06T00:17:05.751Z,67.09
2019-03-06T00:18:05.726Z,67.68
2019-03-06T00:19:05.712Z,67.19
2019-03-06T00:20:05.709Z,66.99
2019-03-06T00:21:05.694Z,67.50
2019-03-06T00:22:05.690Z,67.19
2019-03-06T00:23:05.669Z,66.88
2019-03-06T00:24:05.659Z,66.88
2019-03-06T00:25:05.648Z,67.27
2019-03-06T00:26:05.680Z,66.88
2019-03-06T00:27:05.637Z,66.67
2019-03-06T00:29:27.342Z,66.88
2019-03-06T00:30:30.211Z,66.99
2019-03-06T00:31:27.511Z,67.19
2019-03-06T00:32:27.570Z,66.88
2019-03-06T00:33:27.484Z,67.40
2019-03-06T00:34:27.427Z,67.19
2019-03-06T00:37:17.029Z,66.99
2019-03-06T00:38:16.797Z,66.88
2019-03-06T00:39:16.784Z,66.99
2019-03-06T00:40:16.771Z,67.09
2019-03-06T00:41:17.300Z,67.09
2019-03-06T00:42:16.760Z,67.19
2019-03-06T00:43:16.738Z,66.99
2019-03-06T00:44:16.753Z,66.88
2019-03-06T00:45:16.720Z,66.47
2019-03-06T00:46:16.703Z,66.78
2019-03-06T00:47:16.717Z,66.16
2019-03-06T00:48:16.685Z,66.57
2019-03-06T00:49:16.671Z,66.26
2019-03-06T00:50:16.669Z,66.78
2019-03-06T00:51:16.652Z,66.36
2019-03-06T00:52:16.646Z,66.36
2019-03-06T00:53:16.625Z,65.75
2019-03-06T00:54:16.627Z,66.26
2019-03-06T00:55:16.850Z,65.85
2019-03-06T00:56:16.846Z,65.75
2019-03-06T00:57:16.589Z,65.95
2019-03-06T00:58:16.565Z,65.95
2019-03-06T00:59:16.554Z,65.64
2019-03-06T01:00:16.550Z,65.44
2019-03-06T01:01:16.532Z,65.23
2019-03-06T01:02:16.535Z,65.85
2019-03-06T01:03:16.511Z,65.75
2019-03-06T01:04:16.499Z,65.23
2019-03-06T01:05:16.488Z,65.33
2019-03-06T01:06:16.475Z,65.75
2019-03-06T01:07:16.476Z,65.33
2019-03-06T01:08:16.459Z,65.33
2019-03-06T01:09:16.449Z,65.44
2019-03-06T01:10:16.434Z,65.64
2019-03-06T01:11:16.423Z,65.12
2019-03-06T01:12:16.425Z,65.33
2019-03-06T01:13:16.402Z,65.44
2019-03-06T01:14:16.388Z,65.85
2019-03-06T01:15:16.377Z,65.23
2019-03-06T01:16:16.368Z,65.57
2019-03-06T01:17:16.370Z,65.36
2019-03-06T01:18:16.348Z,65.44
2019-03-06T01:19:16.336Z,65.47
2019-03-06T01:20:16.329Z,65.44
2019-03-06T01:21:16.317Z,65.47
2019-03-06T01:22:16.311Z,65.36
2019-03-06T01:23:16.292Z,65.78
2019-03-06T01:24:16.283Z,65.47
2019-03-06T01:25:16.284Z,65.54
2019-03-06T01:26:16.256Z,65.47
2019-03-06T01:27:16.255Z,65.23
2019-03-06T01:28:16.240Z,65.47
2019-03-06T01:29:16.224Z,65.57
2019-03-06T01:30:16.215Z,65.57
2019-03-06T01:31:16.202Z,65.47
2019-03-06T01:32:16.209Z,65.57
2019-03-06T01:33:16.179Z,65.36
2019-03-06T01:34:16.165Z,65.57
2019-03-06T01:35:16.157Z,65.91
2019-03-06T01:36:16.144Z,65.81
2019-03-06T01:37:16.162Z,65.91
2019-03-06T01:38:16.122Z,65.47
2019-03-06T01:39:23.967Z,65.50
2019-03-06T01:40:16.333Z,65.88
2019-03-06T01:41:16.089Z,65.36
2019-03-06T01:42:16.083Z,65.26
2019-03-06T01:43:16.102Z,65.36
2019-03-06T01:44:16.077Z,65.57
2019-03-06T01:45:16.234Z,64.74
2019-03-06T01:46:16.037Z,65.57
2019-03-06T01:47:16.022Z,65.57
2019-03-06T01:48:16.023Z,64.43
2019-03-06T01:49:16.002Z,64.84
2019-03-06T01:50:15.989Z,65.29
2019-03-06T01:51:15.981Z,65.29
2019-03-06T01:52:15.966Z,65.70
2019-03-06T01:53:15.970Z,66.02
2019-03-06T01:54:15.945Z,65.91
2019-03-06T01:55:15.932Z,66.12
2019-03-06T01:56:15.928Z,66.32
2019-03-06T01:57:15.913Z,66.12
2019-03-06T01:58:28.172Z,66.22
2019-03-06T01:59:15.931Z,66.32
2019-03-06T02:00:15.883Z,66.22
2019-03-06T02:01:15.875Z,66.22
2019-03-06T02:02:15.858Z,65.81
2019-03-06T02:03:15.856Z,66.12
2019-03-06T02:04:15.889Z,65.91
2019-03-06T02:05:15.829Z,66.32
2019-03-06T02:06:15.838Z,66.22
2019-03-06T02:07:15.817Z,66.12
2019-03-06T02:08:15.793Z,66.53
2019-03-06T02:09:15.816Z,66.53
2019-03-06T02:10:15.771Z,66.53
2019-03-06T02:11:15.782Z,66.32
2019-03-06T02:12:15.752Z,66.32
2019-03-06T02:13:15.740Z,66.56
2019-03-06T02:14:15.733Z,66.53
2019-03-06T02:15:15.717Z,66.74
2019-03-06T02:16:15.715Z,66.77
2019-03-06T02:17:15.708Z,66.87
2019-03-06T02:18:15.685Z,66.74
2019-03-06T02:19:15.704Z,66.77
2019-03-06T02:20:15.667Z,66.87
2019-03-06T02:21:15.652Z,67.15
2019-03-06T02:22:15.637Z,67.05
2019-03-06T02:23:15.640Z,66.94
2019-03-06T02:24:15.637Z,66.94
2019-03-06T02:25:15.637Z,66.87
2019-03-06T02:26:15.603Z,66.74
2019-03-06T02:27:15.851Z,66.87
2019-03-06T02:28:15.574Z,66.77
2019-03-06T02:29:15.570Z,66.94
2019-03-06T02:30:15.551Z,66.84
2019-03-06T02:31:15.539Z,66.42
2019-03-06T02:32:15.525Z,66.53
2019-03-06T02:33:15.516Z,66.42
2019-03-06T02:34:15.516Z,66.53
2019-03-06T02:35:15.498Z,66.87
2019-03-06T02:36:15.483Z,66.84
2019-03-06T02:37:15.471Z,67.05
2019-03-06T02:38:15.461Z,66.87
2019-03-06T02:39:15.469Z,66.77
2019-03-06T02:40:15.446Z,67.18
2019-03-06T02:41:15.432Z,67.18
2019-03-06T02:42:15.418Z,66.97
2019-03-06T02:43:15.405Z,66.97
2019-03-06T02:44:15.406Z,67.70
2019-03-06T02:45:15.382Z,67.29
2019-03-06T02:46:15.379Z,67.49
2019-03-06T02:47:15.378Z,67.49
2019-03-06T02:48:15.350Z,67.08
2019-03-06T02:49:15.349Z,67.18
2019-03-06T02:50:15.344Z,67.05
2019-03-06T02:51:15.324Z,67.15
2019-03-06T02:52:15.313Z,67.05
2019-03-06T02:53:15.308Z,66.84
2019-03-06T02:54:15.294Z,66.94
2019-03-06T02:55:15.283Z,67.29
2019-03-06T02:56:15.261Z,67.49
2019-03-06T02:57:15.250Z,67.39
2019-03-06T02:58:15.249Z,67.60
2019-03-06T02:59:15.237Z,67.05
2019-03-06T03:00:15.221Z,67.08
2019-03-06T03:01:15.205Z,67.18
2019-03-06T03:02:15.200Z,67.05
2019-03-06T03:03:15.222Z,66.97
2019-03-06T03:04:15.184Z,67.18
2019-03-06T03:05:15.160Z,66.87
2019-03-06T03:06:15.152Z,67.49
2019-03-06T03:07:15.141Z,67.08
2019-03-06T03:08:15.128Z,67.18
2019-03-06T03:09:15.135Z,67.18
2019-03-06T03:10:15.106Z,67.39
2019-03-06T03:11:15.102Z,67.08
2019-03-06T03:12:15.090Z,66.77
2019-03-06T03:13:15.080Z,67.18
2019-03-06T03:14:15.096Z,67.39
2019-03-06T03:15:15.053Z,67.18
2019-03-06T03:16:15.046Z,67.49
2019-03-06T03:17:15.031Z,67.63
2019-03-06T03:18:15.018Z,67.29
2019-03-06T03:19:15.019Z,68.12
2019-03-06T03:20:15.018Z,68.04
2019-03-06T03:21:14.993Z,68.15
2019-03-06T03:22:22.251Z,67.21
2019-03-06T03:23:14.959Z,67.39
2019-03-06T03:24:14.961Z,67.49
2019-03-06T03:25:14.977Z,68.04
2019-03-06T03:26:14.949Z,68.15
2019-03-06T03:27:22.086Z,68.12
2019-03-06T03:28:14.912Z,68.12
2019-03-06T03:29:14.909Z,67.80
2019-03-06T03:30:22.161Z,67.18
2019-03-06T03:31:14.887Z,67.42
2019-03-06T03:32:14.871Z,67.49
2019-03-06T03:33:14.852Z,67.49
2019-03-06T03:34:14.854Z,67.70
2019-03-06T03:35:14.841Z,68.01
2019-03-06T03:36:14.830Z,68.32
2019-03-06T03:37:14.827Z,68.22
2019-03-06T03:38:14.792Z,68.32
2019-03-06T03:39:14.794Z,68.22
2019-03-06T03:40:14.803Z,68.25
2019-03-06T03:41:14.768Z,68.32
2019-03-06T03:42:14.764Z,68.74
2019-03-06T03:43:14.752Z,68.43
2019-03-06T03:44:14.864Z,68.35
2019-03-06T03:45:14.724Z,68.15
2019-03-06T03:46:14.715Z,68.74
2019-03-06T03:47:14.691Z,68.12
2019-03-06T03:48:14.682Z,68.04
2019-03-06T03:49:14.677Z,68.12
2019-03-06T03:50:14.672Z,68.15
2019-03-06T03:51:14.648Z,68.87
2019-03-06T03:52:14.638Z,68.66
2019-03-06T03:53:14.635Z,68.66
2019-03-06T03:54:14.621Z,68.56
2019-03-06T03:55:14.626Z,68.56
2019-03-06T03:56:14.595Z,68.77
2019-03-06T03:57:14.598Z,68.77
2019-03-06T03:58:14.585Z,68.56
2019-03-06T03:59:14.562Z,68.66
2019-03-06T04:00:14.566Z,68.56
2019-03-06T04:01:14.540Z,68.87
2019-03-06T04:02:14.530Z,68.66
2019-03-06T04:03:14.518Z,68.77
2019-03-06T04:04:14.512Z,68.98
2019-03-06T04:05:14.510Z,68.77
2019-03-06T04:06:14.487Z,68.66
2019-03-06T04:07:14.475Z,68.77
2019-03-06T04:08:14.468Z,68.59
2019-03-06T04:09:14.454Z,69.18
2019-03-06T04:10:14.454Z,68.98
2019-03-06T04:11:14.434Z,69.11
2019-03-06T04:12:14.420Z,69.01
2019-03-06T04:13:14.409Z,69.21
2019-03-06T04:14:14.395Z,69.63
2019-03-06T04:15:14.399Z,69.32
2019-03-06T04:16:15.409Z,69.42
2019-03-06T04:17:14.364Z,69.32
2019-03-06T04:18:14.353Z,69.11
2019-03-06T04:19:14.343Z,69.53
2019-03-06T04:20:14.351Z,69.21
2019-03-06T04:21:14.323Z,69.01
2019-03-06T04:22:14.309Z,69.21
2019-03-06T04:23:14.299Z,69.11
2019-03-06T04:24:14.283Z,69.29
2019-03-06T04:25:14.288Z,69.18
2019-03-06T04:26:14.262Z,69.11
2019-03-06T04:27:14.254Z,69.39
2019-03-06T04:28:14.241Z,69.21
2019-03-06T04:29:14.229Z,69.53
2019-03-06T04:30:14.232Z,69.32
2019-03-06T04:31:14.207Z,69.01
2019-03-06T04:32:14.197Z,69.21
2019-03-06T04:33:14.183Z,69.63
2019-03-06T04:34:14.173Z,69.63
2019-03-06T04:35:14.178Z,69.73
2019-03-06T04:36:14.153Z,69.42
2019-03-06T04:37:14.141Z,69.42
2019-03-06T04:38:14.128Z,69.53
2019-03-06T04:39:14.119Z,69.53
2019-03-06T04:40:14.114Z,69.21
2019-03-06T04:41:14.097Z,70.28
2019-03-06T04:42:14.088Z,70.18
2019-03-06T04:43:14.073Z,69.66
2019-03-06T04:44:14.062Z,70.70
2019-03-06T04:45:14.071Z,70.59
2019-03-06T04:46:14.040Z,70.49
2019-03-06T04:47:14.028Z,70.70
2019-03-06T04:48:14.019Z,70.59
2019-03-06T04:49:14.011Z,70.70
2019-03-06T04:50:14.009Z,70.39
2019-03-06T04:51:13.983Z,70.49
2019-03-06T04:52:13.971Z,70.59
2019-03-06T04:53:13.959Z,70.70
2019-03-06T04:54:13.950Z,70.70
2019-03-06T04:55:13.956Z,70.59
2019-03-06T04:56:13.927Z,70.39
2019-03-06T04:57:13.922Z,70.59
2019-03-06T04:58:13.906Z,70.39
2019-03-06T04:59:13.893Z,70.59
2019-03-06T05:00:13.892Z,70.18
2019-03-06T05:01:13.871Z,70.59
2019-03-06T05:02:13.870Z,70.07
2019-03-06T05:03:13.859Z,70.59
2019-03-06T05:04:13.844Z,69.45
2019-03-06T05:05:13.841Z,70.39
2019-03-06T05:06:13.818Z,70.90
2019-03-06T05:07:13.808Z,69.45
2019-03-06T05:08:13.796Z,69.66
2019-03-06T05:09:13.783Z,70.90
2019-03-06T05:10:13.782Z,70.39
2019-03-06T05:11:13.763Z,69.97
2019-03-06T05:12:13.750Z,70.90
2019-03-06T05:13:13.739Z,70.70
2019-03-06T05:14:13.727Z,70.59
2019-03-06T05:15:13.726Z,70.83
2019-03-06T05:16:13.709Z,70.49
2019-03-06T05:17:13.696Z,70.70
2019-03-06T05:18:13.687Z,70.83
2019-03-06T05:19:13.669Z,70.73
2019-03-06T05:20:13.670Z,71.25
2019-03-06T05:21:13.649Z,70.94
2019-03-06T05:22:13.641Z,70.73
2019-03-06T05:23:13.627Z,71.14
2019-03-06T05:24:13.614Z,70.83
2019-03-06T05:25:13.619Z,70.83
2019-03-06T05:26:13.593Z,71.14
2019-03-06T05:27:13.581Z,71.04
2019-03-06T05:28:13.577Z,71.25
2019-03-06T05:29:13.559Z,71.45
2019-03-06T05:30:13.561Z,71.87
2019-03-06T05:31:13.536Z,71.97
2019-03-06T05:32:21.151Z,72.11
2019-03-06T05:33:20.862Z,72.74
2019-03-06T05:34:21.942Z,72.74
2019-03-06T05:35:20.836Z,73.18
2019-03-06T05:36:13.749Z,72.94
2019-03-06T05:37:13.479Z,73.05
2019-03-06T05:38:13.467Z,72.74
2019-03-06T05:39:13.447Z,72.94
2019-03-06T05:40:13.442Z,72.22
2019-03-06T05:41:13.436Z,72.74
2019-03-06T05:42:13.413Z,72.42
2019-03-06T05:43:13.411Z,72.32
2019-03-06T05:44:13.403Z,72.32
2019-03-06T05:45:13.383Z,72.32
2019-03-06T05:46:13.459Z,72.32
2019-03-06T05:47:13.369Z,72.22
2019-03-06T05:48:13.535Z,72.74
2019-03-06T05:49:13.341Z,72.53
2019-03-06T05:50:13.328Z,72.42
2019-03-06T05:51:13.326Z,72.22
2019-03-06T05:52:13.306Z,72.63
2019-03-06T05:53:13.297Z,72.42
2019-03-06T05:54:13.280Z,72.74
2019-03-06T05:55:13.274Z,72.01
2019-03-06T05:56:13.270Z,71.91
2019-03-06T05:57:13.246Z,72.42
2019-03-06T05:58:13.238Z,72.74
2019-03-06T05:59:13.225Z,72.84
2019-03-06T06:00:13.215Z,72.63
2019-03-06T06:01:13.211Z,72.63
2019-03-06T06:02:13.196Z,72.60
2019-03-06T06:03:13.181Z,71.97
2019-03-06T06:04:13.173Z,72.49
2019-03-06T06:05:13.164Z,72.08
2019-03-06T06:06:13.158Z,72.28
2019-03-06T06:07:13.135Z,72.84
2019-03-06T06:08:13.132Z,72.42
2019-03-06T06:09:13.116Z,72.32
2019-03-06T06:10:13.103Z,72.18
2019-03-06T06:11:13.105Z,72.60
2019-03-06T06:12:13.080Z,72.32
2019-03-06T06:13:13.069Z,73.36
2019-03-06T06:14:13.056Z,73.18
2019-03-06T06:15:13.047Z,73.05
2019-03-06T06:16:13.061Z,73.46
2019-03-06T06:17:13.027Z,73.39
2019-03-06T06:18:13.012Z,73.25
2019-03-06T06:19:13.006Z,73.36
2019-03-06T06:20:12.989Z,73.25
2019-03-06T06:21:12.989Z,73.11
2019-03-06T06:22:12.972Z,73.01
2019-03-06T06:23:12.956Z,72.60
2019-03-06T06:24:12.946Z,72.80
2019-03-06T06:25:12.949Z,72.60
2019-03-06T06:26:12.962Z,72.49
2019-03-06T06:27:12.918Z,72.91
2019-03-06T06:28:12.907Z,72.80
2019-03-06T06:29:12.900Z,73.63
2019-03-06T06:30:12.890Z,73.36
2019-03-06T06:31:12.869Z,73.88
2019-03-06T06:32:12.869Z,73.91
2019-03-06T06:33:12.845Z,74.40
2019-03-06T06:34:12.837Z,74.60
2019-03-06T06:35:12.823Z,74.50
2019-03-06T06:36:12.815Z,74.50
2019-03-06T06:37:12.814Z,74.60
2019-03-06T06:38:12.792Z,74.60
2019-03-06T06:39:12.781Z,74.29
2019-03-06T06:40:12.771Z,74.05
2019-03-06T06:41:12.757Z,74.40
2019-03-06T06:42:12.756Z,74.40
2019-03-06T06:43:12.733Z,74.60
2019-03-06T06:44:12.727Z,74.36
2019-03-06T06:45:12.711Z,74.71
2019-03-06T06:46:12.719Z,74.26
2019-03-06T06:47:12.713Z,74.36
2019-03-06T06:48:12.718Z,73.94
2019-03-06T06:49:12.676Z,74.05
2019-03-06T06:50:12.685Z,74.01
2019-03-06T06:51:13.470Z,73.39
2019-03-06T06:52:12.720Z,72.98
2019-03-06T06:53:12.648Z,72.67
2019-03-06T06:54:12.674Z,72.36
2019-03-06T06:55:12.649Z,72.46
2019-03-06T06:56:12.669Z,72.67
2019-03-06T06:57:12.619Z,72.67
2019-03-06T06:58:12.662Z,72.15
2019-03-06T06:59:12.608Z,72.42
2019-03-06T07:00:12.580Z,72.77
2019-03-06T07:01:12.584Z,72.63
2019-03-06T07:02:12.565Z,72.32
2019-03-06T07:03:12.546Z,72.42
2019-03-06T07:04:12.576Z,72.53
2019-03-06T07:05:12.556Z,72.11
2019-03-06T07:06:12.497Z,72.94
2019-03-06T07:07:12.972Z,72.42
2019-03-06T07:08:12.554Z,72.11
2019-03-06T07:09:12.481Z,72.22
2019-03-06T07:10:12.456Z,72.22
2019-03-06T07:11:12.503Z,72.08
2019-03-06T07:12:12.460Z,71.77
2019-03-06T07:13:12.970Z,71.73
2019-03-06T07:14:12.443Z,71.36
2019-03-06T07:15:12.461Z,71.53
2019-03-06T07:16:12.392Z,71.36
2019-03-06T07:17:12.973Z,72.19
2019-03-06T07:18:12.411Z,71.98
2019-03-06T07:19:12.973Z,72.08
2019-03-06T07:20:12.369Z,71.67
2019-03-06T07:21:12.371Z,71.63
2019-03-06T07:22:12.327Z,71.22
2019-03-06T07:23:12.973Z,71.12
2019-03-06T07:24:12.338Z,71.01
2019-03-06T07:25:12.303Z,71.01
2019-03-06T07:26:12.974Z,70.98
2019-03-06T07:27:12.269Z,71.08
2019-03-06T07:28:12.590Z,70.67
2019-03-06T07:29:12.276Z,69.95
2019-03-06T07:30:12.252Z,70.15
2019-03-06T07:31:12.268Z,70.01
2019-03-06T07:32:12.234Z,69.40
2019-03-06T07:33:12.219Z,70.12
2019-03-06T07:34:12.205Z,69.50
2019-03-06T07:35:12.222Z,69.09
2019-03-06T07:36:12.984Z,69.43
2019-03-06T07:37:12.153Z,69.19
2019-03-06T07:38:12.183Z,68.85
2019-03-06T07:39:12.132Z,68.92
2019-03-06T07:40:12.177Z,68.68
2019-03-06T07:41:12.976Z,66.79
2019-03-06T07:42:12.976Z,66.07
2019-03-06T07:43:12.128Z,65.34
2019-03-06T07:44:12.086Z,64.80
2019-03-06T07:45:12.158Z,64.64
2019-03-06T07:46:12.057Z,64.09
2019-03-06T07:47:12.055Z,61.80
2019-03-06T07:48:12.110Z,62.31
2019-03-06T07:49:12.065Z,61.74
2019-03-06T07:50:12.038Z,60.99
2019-03-06T07:51:12.031Z,59.83
2019-03-06T07:52:12.978Z,59.01
2019-03-06T07:53:12.977Z,59.31
2019-03-06T07:54:11.984Z,59.22
2019-03-06T07:55:11.959Z,59.11
2019-03-06T07:56:11.986Z,60.37
2019-03-06T07:57:11.996Z,60.61
2019-03-06T07:58:11.973Z,61.46
2019-03-06T07:59:11.963Z,62.34
2019-03-06T08:00:11.933Z,62.72
2019-03-06T08:01:16.982Z,61.46
2019-03-06T08:02:12.908Z,61.63
2019-03-06T08:03:11.887Z,60.58
2019-03-06T08:04:12.481Z,59.75
2019-03-06T08:05:11.881Z,60.06
2019-03-06T08:06:11.832Z,59.22
2019-03-06T08:07:11.872Z,58.67
2019-03-06T08:08:12.514Z,58.44
2019-03-06T08:09:11.827Z,58.13
2019-03-06T08:10:11.809Z,57.62
2019-03-06T08:11:11.839Z,57.26
2019-03-06T08:12:12.503Z,55.41
2019-03-06T08:13:12.496Z,56.67
2019-03-06T08:14:21.873Z,56.77
2019-03-06T08:15:12.768Z,56.15
2019-03-06T08:16:11.722Z,56.34
2019-03-06T08:17:11.728Z,56.71
2019-03-06T08:18:11.726Z,55.79
2019-03-06T08:19:11.742Z,55.15
2019-03-06T08:20:11.738Z,54.82
2019-03-06T08:21:12.483Z,53.90
2019-03-06T08:22:11.652Z,53.80
2019-03-06T08:23:18.828Z,53.39
2019-03-06T08:24:18.851Z,54.21
2019-03-06T08:25:11.610Z,54.82
2019-03-06T08:26:11.628Z,53.69
2019-03-06T08:27:11.604Z,54.74
2019-03-06T08:28:11.625Z,54.13
2019-03-06T08:29:11.570Z,54.87
2019-03-06T08:30:11.560Z,54.74
2019-03-06T08:31:11.548Z,54.85
2019-03-06T08:32:11.529Z,54.21
2019-03-06T08:33:17.877Z,53.77
2019-03-06T08:34:12.518Z,52.51
2019-03-06T08:35:11.516Z,52.98
2019-03-06T08:36:11.502Z,52.06
2019-03-06T08:37:11.683Z,51.93
2019-03-06T08:38:11.455Z,50.58
2019-03-06T08:39:11.457Z,50.35
2019-03-06T08:40:11.436Z,48.80
2019-03-06T08:41:11.443Z,50.02
2019-03-06T08:42:11.454Z,49.55
2019-03-06T08:43:11.442Z,51.57
2019-03-06T08:44:11.508Z,52.62
2019-03-06T08:45:11.411Z,53.33
2019-03-06T08:46:18.690Z,52.42
2019-03-06T08:47:11.354Z,53.56
2019-03-06T08:48:11.357Z,53.56
2019-03-06T08:49:11.373Z,54.21
2019-03-06T08:50:11.587Z,54.00
2019-03-06T08:51:11.313Z,53.97
2019-03-06T08:52:11.301Z,54.18
2019-03-06T08:53:11.359Z,53.75
2019-03-06T08:54:11.373Z,52.75
2019-03-06T08:55:11.321Z,53.31
2019-03-06T08:56:11.313Z,52.49
2019-03-06T08:57:11.318Z,52.51
2019-03-06T08:58:11.265Z,53.21
2019-03-06T08:59:11.317Z,52.16
2019-03-06T09:00:11.231Z,51.62
2019-03-06T09:01:11.301Z,51.68
2019-03-06T09:02:15.610Z,51.35
2019-03-06T09:03:11.222Z,48.57
2019-03-06T09:04:11.312Z,49.84
2019-03-06T09:05:11.215Z,50.25
2019-03-06T09:06:11.150Z,50.41
2019-03-06T09:07:11.198Z,48.36
2019-03-06T09:08:11.144Z,48.34
2019-03-06T09:09:12.068Z,47.81
2019-03-06T09:10:12.069Z,46.79
2019-03-06T09:11:12.055Z,46.67
2019-03-06T09:12:12.079Z,46.18
2019-03-06T09:13:11.100Z,47.91
2019-03-06T09:14:11.075Z,47.42
2019-03-06T09:15:11.561Z,48.14
2019-03-06T09:16:11.570Z,48.03
2019-03-06T09:17:11.565Z,47.71
2019-03-06T09:18:11.044Z,46.75
2019-03-06T09:19:11.025Z,46.11
2019-03-06T09:20:11.575Z,45.50
2019-03-06T09:21:10.999Z,45.50
2019-03-06T09:22:11.108Z,45.71
2019-03-06T09:23:10.978Z,44.87
2019-03-06T09:24:11.574Z,44.22
2019-03-06T09:25:10.987Z,43.61
2019-03-06T09:26:10.952Z,44.28
2019-03-06T09:27:10.951Z,43.37
2019-03-06T09:28:11.622Z,43.37
2019-03-06T09:29:10.899Z,43.16
2019-03-06T09:30:16.071Z,43.90
2019-03-06T09:31:11.956Z,43.91
2019-03-06T09:32:10.871Z,44.04
2019-03-06T09:33:10.857Z,44.14
2019-03-06T09:34:10.899Z,44.75
2019-03-06T09:35:11.617Z,44.77
2019-03-06T09:36:10.845Z,45.38
2019-03-06T09:37:10.841Z,45.48
2019-03-06T09:38:11.439Z,45.79
2019-03-06T09:39:10.885Z,44.67
2019-03-06T09:40:10.796Z,45.36
2019-03-06T09:41:10.831Z,45.36
2019-03-06T09:42:10.769Z,45.68
2019-03-06T09:43:10.789Z,45.89
2019-03-06T09:44:10.757Z,46.75
2019-03-06T09:45:10.760Z,47.77
2019-03-06T09:46:10.778Z,48.19
2019-03-06T09:47:10.693Z,48.96
2019-03-06T09:48:12.692Z,48.65
2019-03-06T09:49:11.835Z,47.61
2019-03-06T09:50:10.660Z,46.41
2019-03-06T09:51:12.137Z,48.36
2019-03-06T09:52:10.658Z,48.49
2019-03-06T09:53:10.634Z,48.96
2019-03-06T09:54:10.615Z,47.42
2019-03-06T09:55:10.630Z,47.22
2019-03-06T09:56:10.672Z,47.71
2019-03-06T09:57:10.646Z,46.89
2019-03-06T09:58:11.065Z,46.61
2019-03-06T09:59:11.105Z,46.92
2019-03-06T10:00:10.575Z,47.02
2019-03-06T10:01:11.080Z,46.81
2019-03-06T10:02:10.520Z,46.51
2019-03-06T10:03:10.516Z,46.89
2019-03-06T10:04:10.521Z,46.28
2019-03-06T10:05:10.507Z,46.71
2019-03-06T10:06:10.516Z,47.32
2019-03-06T10:07:10.483Z,48.06
2019-03-06T10:08:10.462Z,47.50
2019-03-06T10:09:10.447Z,46.97
2019-03-06T10:10:10.477Z,45.61
2019-03-06T10:11:11.068Z,45.50
2019-03-06T10:12:10.412Z,44.59
2019-03-06T10:13:11.100Z,44.34
2019-03-06T10:14:10.396Z,44.45
2019-03-06T10:15:10.452Z,43.93
2019-03-06T10:16:10.385Z,43.63
2019-03-06T10:17:11.080Z,43.14
2019-03-06T10:18:10.345Z,42.69
2019-03-06T10:19:11.074Z,42.98
2019-03-06T10:20:11.071Z,42.68
2019-03-06T10:21:11.074Z,41.64
2019-03-06T10:22:10.333Z,40.99
2019-03-06T10:23:10.299Z,40.79
2019-03-06T10:24:11.078Z,40.89
2019-03-06T10:25:10.260Z,41.17
2019-03-06T10:26:10.303Z,40.77
2019-03-06T10:27:11.173Z,40.16
2019-03-06T10:28:10.295Z,40.47
2019-03-06T10:29:10.207Z,40.93
2019-03-06T10:30:10.192Z,41.76
2019-03-06T10:31:10.176Z,43.10
2019-03-06T10:32:10.173Z,41.76
2019-03-06T10:33:10.152Z,41.13
2019-03-06T10:34:10.149Z,40.64
2019-03-06T10:35:10.204Z,41.15
2019-03-06T10:36:10.119Z,41.58
2019-03-06T10:37:10.127Z,40.95
2019-03-06T10:38:16.491Z,40.54
2019-03-06T10:39:11.082Z,41.76
2019-03-06T10:40:10.076Z,40.91
2019-03-06T10:41:10.060Z,40.50
2019-03-06T10:42:10.059Z,41.03
2019-03-06T10:43:10.039Z,40.64
2019-03-06T10:44:10.029Z,40.93
2019-03-06T10:45:10.018Z,40.72
2019-03-06T10:46:10.007Z,41.24
2019-03-06T10:47:10.005Z,39.89
2019-03-06T10:48:09.982Z,38.96
2019-03-06T10:49:09.971Z,39.39
2019-03-06T10:50:09.961Z,39.49
2019-03-06T10:51:09.951Z,39.30
2019-03-06T10:52:09.949Z,39.53
2019-03-06T10:53:09.931Z,41.09
2019-03-06T10:54:09.915Z,41.17
2019-03-06T10:55:09.904Z,41.27
2019-03-06T10:56:09.892Z,39.34
2019-03-06T10:57:11.839Z,39.54
2019-03-06T10:58:09.872Z,39.38
2019-03-06T10:59:09.859Z,41.00
2019-03-06T11:00:09.853Z,40.74
2019-03-06T11:01:09.840Z,40.33
2019-03-06T11:02:09.837Z,41.14
2019-03-06T11:03:09.815Z,40.62
2019-03-06T11:04:09.801Z,40.53
2019-03-06T11:05:09.793Z,41.14
2019-03-06T11:06:09.790Z,40.96
2019-03-06T11:07:09.784Z,42.00
2019-03-06T11:08:09.760Z,41.78
2019-03-06T11:09:09.748Z,41.57
2019-03-06T11:10:09.736Z,41.27
2019-03-06T11:11:09.727Z,41.39
2019-03-06T11:12:09.723Z,40.98
2019-03-06T11:13:09.703Z,41.80
2019-03-06T11:14:09.700Z,41.08
2019-03-06T11:15:09.686Z,40.96
2019-03-06T11:16:09.670Z,40.96
2019-03-06T11:17:09.672Z,40.82
2019-03-06T11:18:09.652Z,41.13
2019-03-06T11:19:09.634Z,41.02
2019-03-06T11:20:09.622Z,40.62
2019-03-06T11:21:09.621Z,40.72
2019-03-06T11:22:09.619Z,40.52
2019-03-06T11:23:09.601Z,40.21
2019-03-06T11:24:09.606Z,40.33
2019-03-06T11:25:09.628Z,39.51
2019-03-06T11:26:09.585Z,41.06
2019-03-06T11:27:09.573Z,40.88
2019-03-06T11:28:09.582Z,41.49
2019-03-06T11:29:09.563Z,42.10
2019-03-06T11:30:09.541Z,41.80
2019-03-06T11:31:09.602Z,42.10
2019-03-06T11:32:09.544Z,42.21
2019-03-06T11:33:09.543Z,41.80
2019-03-06T11:34:09.545Z,40.98
2019-03-06T11:35:09.500Z,42.30
2019-03-06T11:36:09.467Z,42.21
2019-03-06T11:37:09.479Z,42.41
2019-03-06T11:38:09.465Z,42.10
2019-03-06T11:39:09.438Z,42.18
2019-03-06T11:40:09.473Z,42.08
2019-03-06T11:41:09.422Z,42.21
2019-03-06T11:42:09.703Z,42.10
2019-03-06T11:43:09.416Z,42.00
2019-03-06T11:44:09.391Z,43.23
2019-03-06T11:45:09.369Z,43.12
2019-03-06T11:46:09.389Z,43.12
2019-03-06T11:47:09.350Z,41.80
2019-03-06T11:48:09.390Z,42.33
2019-03-06T11:49:09.349Z,43.35
2019-03-06T11:50:09.364Z,42.92
2019-03-06T11:51:09.296Z,41.71
2019-03-06T11:52:09.294Z,42.02
2019-03-06T11:53:09.296Z,42.65
2019-03-06T11:54:09.286Z,42.35
2019-03-06T11:55:09.709Z,43.26
2019-03-06T11:56:09.259Z,42.88
2019-03-06T11:57:09.239Z,42.57
2019-03-06T11:58:09.288Z,43.16
2019-03-06T11:59:09.210Z,42.14
2019-03-06T12:00:09.224Z,42.04
2019-03-06T12:01:09.182Z,41.83
2019-03-06T12:02:11.132Z,42.12
2019-03-06T12:03:09.173Z,41.82
2019-03-06T12:04:09.166Z,41.71
2019-03-06T12:05:09.161Z,41.20
2019-03-06T12:06:09.152Z,41.59
2019-03-06T12:07:09.137Z,41.19
2019-03-06T12:08:09.133Z,41.47
2019-03-06T12:09:09.112Z,40.66
2019-03-06T12:10:09.112Z,40.76
2019-03-06T12:11:09.101Z,40.86
2019-03-06T12:12:09.097Z,40.96
2019-03-06T12:13:09.107Z,40.76
2019-03-06T12:14:09.049Z,40.66
2019-03-06T12:15:09.050Z,40.53
2019-03-06T12:16:09.025Z,40.64
2019-03-06T12:17:09.044Z,40.74
2019-03-06T12:18:09.039Z,40.53
2019-03-06T12:19:09.004Z,40.74
2019-03-06T12:20:09.117Z,40.72
2019-03-06T12:21:08.970Z,40.52
2019-03-06T12:22:08.951Z,39.29
2019-03-06T12:23:08.971Z,39.60
2019-03-06T12:24:08.983Z,40.01
2019-03-06T12:25:08.917Z,39.40
2019-03-06T12:26:08.927Z,40.62
2019-03-06T12:27:08.918Z,40.72
2019-03-06T12:28:10.170Z,40.21
2019-03-06T12:29:08.884Z,40.64
2019-03-06T12:30:08.877Z,40.66
2019-03-06T12:31:08.856Z,41.37
2019-03-06T12:32:08.846Z,41.98
2019-03-06T12:33:08.845Z,42.39
2019-03-06T12:34:08.851Z,42.08
2019-03-06T12:35:08.821Z,40.96
2019-03-06T12:36:08.848Z,41.88
2019-03-06T12:37:08.817Z,42.18
2019-03-06T12:38:10.782Z,41.98
2019-03-06T12:39:08.772Z,41.78
2019-03-06T12:40:12.251Z,41.67
2019-03-06T12:41:09.759Z,41.88
2019-03-06T12:42:14.365Z,42.18
2019-03-06T12:43:09.812Z,42.37
2019-03-06T12:44:10.648Z,42.49
2019-03-06T12:45:08.737Z,41.98
2019-03-06T12:46:08.669Z,41.88
2019-03-06T12:47:08.675Z,41.78
2019-03-06T12:48:08.650Z,41.78
2019-03-06T12:49:08.652Z,43.02
2019-03-06T12:50:08.720Z,42.51
2019-03-06T12:51:08.624Z,43.02
2019-03-06T12:52:08.606Z,42.92
2019-03-06T12:53:08.618Z,43.12
2019-03-06T12:54:08.598Z,42.71
2019-03-06T12:55:08.588Z,43.00